82FL weather

CLOSED BR Ranch Airport
Jupiter, Florida, United States

Public forecast

Using degrees Fahrenheit for public forecast. Weather courtesy of forecast.io.

METAR (pilot weather report)

Closest report is Palm Beach International Airport, 15.1 nm (27.9 km) SSE. Retrieved 2019/06/20 00:53 UTC (18 minutes ago):

KPBI 200053Z 00000KT 10SM FEW040 SCT110 BKN170 25/22 A3005 RMK AO2 SLP173 CB DSNT N-NE T02500217

TAF (pilot weather forecast)

Forecast is more than 12 hours old.

Closest forecast is Palm Beach International Airport, 15.1 nm (27.9 km) SSE. Retrieved 2019/06/19 00:36 UTC (1 day ago):

TAF KPBI 192334Z 2000/2024 16008KT P6SM VCSH SCT030 SCT070 BKN250 FM200100 21005KT P6SM SCT020 BKN250 FM201400 17010KT P6SM SCT025 SCT070 SCT250 FM202200 17008KT P6SM SCT025 BKN250